< < Back
Terminal Aerodrome Forecast


Current Version              Previous Versions:   1  2  3  4  5  6  7  8  9  

Terminal Aerodrome Forecast

846
FTUS42 KGSP 221728
TAFAVL
TAF
KAVL 221728Z 2218/2318 36008G15KT P6SM SKC
     FM230300 00000KT P6SM SKC
     FM231500 16005KT P6SM FEW040 SCT120=



Latest METAR

526
SAUS70 KWBC 230100 RRP
MTRAVL
METAR KAVL 230054Z 34009KT 10SM CLR 17/02 A3029 RMK AO2 SLP244
T01720017


USA.gov is the U.S. government's official web portal to all federal, state and local government web resources and services.